Time;durP1;ratioP1;P1;durP2;ratioP2;P2;SDS_P1;SDS_P2;PMS_P1;PMS_P2;Temp;Humidity;BMP_temperature;BMP_pressure;BME280_temperature;BME280_humidity;BME280_pressure;Samples;Min_cycle;Max_cycle;Signal;HPM_P1;HPM_P2
2022/03/12 00:01:53;;;;;;;11.75;8.38;;;0.60;88.10;;;;;;5006098;28;20133;-73
2022/03/12 00:04:26;;;;;;;11.07;6.75;;;0.50;88.40;;;;;;4989429;28;20049;-72
2022/03/12 00:06:59;;;;;;;11.30;7.75;;;0.50;88.50;;;;;;4990055;28;20072;-73
2022/03/12 00:09:31;;;;;;;10.18;7.20;;;0.50;88.40;;;;;;4990106;28;20145;-72
2022/03/12 00:12:04;;;;;;;10.82;7.65;;;0.50;88.60;;;;;;5006396;28;20165;-73
2022/03/12 00:14:37;;;;;;;11.15;8.18;;;0.40;89.00;;;;;;4989453;28;20134;-72
2022/03/12 00:17:12;;;;;;;10.55;6.15;;;0.40;89.50;;;;;;4990780;28;20121;-72
2022/03/12 00:19:44;;;;;;;12.65;8.50;;;0.40;89.70;;;;;;4988811;28;20134;-72
2022/03/12 00:22:17;;;;;;;11.93;8.10;;;0.40;89.40;;;;;;4983469;28;20133;-72
2022/03/12 00:24:51;;;;;;;12.13;8.57;;;0.40;89.10;;;;;;5011557;28;20046;-72
2022/03/12 00:27:23;;;;;;;14.98;8.40;;;0.40;89.10;;;;;;5013410;28;20050;-72
2022/03/12 00:29:56;;;;;;;11.38;8.10;;;0.40;89.50;;;;;;5015258;28;20056;-72
2022/03/12 00:32:28;;;;;;;11.05;7.45;;;0.40;90.00;;;;;;5029780;28;20483;-72
2022/03/12 00:35:00;;;;;;;12.45;8.25;;;0.30;90.50;;;;;;5015066;28;20125;-72
2022/03/12 00:37:32;;;;;;;13.05;7.32;;;0.30;90.30;;;;;;5029452;28;20065;-72
2022/03/12 00:40:05;;;;;;;15.60;7.60;;;0.30;90.40;;;;;;5013837;28;20515;-71
2022/03/12 00:42:37;;;;;;;13.93;7.53;;;0.20;90.40;;;;;;5029048;28;20045;-73
2022/03/12 00:45:10;;;;;;;10.75;7.47;;;0.20;90.80;;;;;;5029381;28;20088;-72
2022/03/12 00:47:42;;;;;;;12.30;7.50;;;0.10;91.40;;;;;;5029923;28;20496;-72
2022/03/12 00:50:15;;;;;;;12.60;8.57;;;0.00;91.40;;;;;;4998117;28;20133;-73
2022/03/12 00:52:50;;;;;;;14.40;10.00;;;0.00;91.60;;;;;;5013065;28;20033;-72
2022/03/12 00:55:22;;;;;;;15.75;10.68;;;0.00;92.20;;;;;;4997832;28;20495;-72
2022/03/12 00:57:55;;;;;;;13.30;8.93;;;0.00;92.10;;;;;;5014686;28;20580;-72
2022/03/12 01:00:28;;;;;;;10.80;7.35;;;0.00;92.80;;;;;;4997800;28;20069;-72
2022/03/12 01:02:55;;;;;;;10.10;7.18;;;0.00;93.00;;;;;;4996332;28;20125;-72
2022/03/12 01:05:50;;;;;;;13.75;7.07;;;0.00;93.50;;;;;;5013167;28;20419;-73
2022/03/12 01:08:23;;;;;;;11.60;6.93;;;-0.10;93.60;;;;;;5006055;28;20089;-72
2022/03/12 01:10:59;;;;;;;10.00;6.65;;;-0.10;93.50;;;;;;4997812;28;20056;-72
2022/03/12 01:13:27;;;;;;;12.15;6.15;;;-0.10;92.80;;;;;;5012645;28;20050;-72
2022/03/12 01:15:59;;;;;;;12.90;7.32;;;-0.10;92.70;;;;;;5013217;28;20045;-72
2022/03/12 01:18:31;;;;;;;11.60;6.18;;;-0.10;92.90;;;;;;5014265;28;20140;-72
2022/03/12 01:21:17;;;;;;;10.77;6.45;;;-0.20;93.70;;;;;;5014265;28;20120;-72
2022/03/12 01:23:50;;;;;;;12.57;6.40;;;-0.20;93.70;;;;;;5013627;28;20068;-72
2022/03/12 01:26:23;;;;;;;10.85;6.75;;;-0.10;93.80;;;;;;4997162;28;20042;-72
2022/03/12 01:28:54;;;;;;;10.55;6.72;;;-0.10;93.80;;;;;;5014025;28;20052;-72
2022/03/12 01:31:26;;;;;;;11.23;6.63;;;-0.20;93.60;;;;;;5012810;28;20056;-72
2022/03/12 01:33:53;;;;;;;13.07;6.55;;;-0.20;93.90;;;;;;4995917;28;20136;-72
2022/03/12 01:36:25;;;;;;;13.15;6.80;;;-0.20;94.10;;;;;;5029181;28;20052;-72
2022/03/12 01:38:59;;;;;;;14.57;6.88;;;-0.20;94.00;;;;;;5012557;28;20038;-71
2022/03/12 01:41:34;;;;;;;11.93;7.00;;;-0.20;93.80;;;;;;5012772;28;20037;-72
2022/03/12 01:44:07;;;;;;;11.90;6.60;;;-0.20;93.60;;;;;;5027700;28;20112;-72
2022/03/12 01:46:39;;;;;;;9.93;6.40;;;-0.20;93.40;;;;;;5028914;28;20568;-71
2022/03/12 01:49:18;;;;;;;9.00;6.15;;;-0.20;93.30;;;;;;5013645;28;20046;-72
2022/03/12 01:51:52;;;;;;;9.00;6.22;;;-0.20;93.20;;;;;;4996632;28;20060;-72
2022/03/12 01:54:28;;;;;;;9.98;6.10;;;-0.20;92.70;;;;;;5013108;28;20435;-73
2022/03/12 01:57:00;;;;;;;11.63;6.20;;;-0.20;92.00;;;;;;5028615;28;20046;-72
2022/03/12 01:59:33;;;;;;;10.55;6.47;;;-0.20;92.20;;;;;;5027962;28;20491;-72
2022/03/12 02:02:09;;;;;;;13.05;7.18;;;-0.20;92.10;;;;;;5027223;28;20038;-72
2022/03/12 02:04:37;;;;;;;10.13;6.10;;;-0.20;91.50;;;;;;5011052;28;20085;-72
2022/03/12 02:07:04;;;;;;;10.05;6.60;;;-0.20;91.50;;;;;;5011447;28;20054;-72
2022/03/12 02:09:35;;;;;;;10.93;6.60;;;-0.20;92.00;;;;;;5012769;28;20080;-73
2022/03/12 02:12:08;;;;;;;10.82;7.07;;;-0.20;91.80;;;;;;5027961;28;20077;-72
2022/03/12 02:14:39;;;;;;;9.13;6.25;;;-0.20;91.90;;;;;;5010740;28;20046;-72
2022/03/12 02:17:12;;;;;;;10.52;6.13;;;-0.20;91.40;;;;;;5027895;28;20048;-72
2022/03/12 02:19:44;;;;;;;10.20;5.65;;;-0.20;91.80;;;;;;5011474;28;20400;-72
2022/03/12 02:22:16;;;;;;;10.43;6.25;;;-0.30;92.00;;;;;;5012421;28;20046;-71
2022/03/12 02:24:47;;;;;;;9.07;6.43;;;-0.20;92.00;;;;;;4995421;28;20046;-72
2022/03/12 02:27:25;;;;;;;9.90;6.22;;;-0.30;92.00;;;;;;5011226;28;20128;-72
2022/03/12 02:29:59;;;;;;;9.55;6.07;;;-0.30;91.90;;;;;;5012263;28;20568;-72
2022/03/12 02:32:26;;;;;;;9.30;5.75;;;-0.30;91.70;;;;;;5011779;28;20125;-73
2022/03/12 02:34:53;;;;;;;11.52;5.85;;;-0.30;91.70;;;;;;5011112;28;20106;-72
2022/03/12 02:37:33;;;;;;;11.35;6.43;;;-0.30;92.10;;;;;;5010701;28;20049;-71
2022/03/12 02:40:09;;;;;;;10.65;6.30;;;-0.30;92.60;;;;;;5012218;28;20045;-72
2022/03/12 02:42:40;;;;;;;9.07;5.80;;;-0.30;92.50;;;;;;5011536;28;20040;-72
2022/03/12 02:45:15;;;;;;;11.25;6.95;;;-0.40;92.40;;;;;;5001452;28;20126;-72
2022/03/12 02:47:48;;;;;;;8.98;6.18;;;-0.30;92.10;;;;;;4990236;28;20050;-72
2022/03/12 02:50:20;;;;;;;10.35;6.00;;;-0.40;92.10;;;;;;4991217;28;20415;-72
2022/03/12 02:52:54;;;;;;;11.75;6.47;;;-0.40;93.00;;;;;;4991321;28;20042;-72
2022/03/12 02:55:25;;;;;;;8.00;5.17;;;-0.40;94.20;;;;;;5007310;28;20046;-72
2022/03/12 02:57:57;;;;;;;11.45;6.55;;;-0.40;94.20;;;;;;4990903;28;20048;-72
2022/03/12 03:00:31;;;;;;;13.02;7.00;;;-0.40;95.00;;;;;;5006753;28;20035;-72
2022/03/12 03:03:04;;;;;;;8.63;5.47;;;-0.40;94.80;;;;;;4974853;28;20137;-72
2022/03/12 03:05:50;;;;;;;12.50;6.70;;;-0.40;95.50;;;;;;4992235;28;20500;-73
2022/03/12 03:08:21;;;;;;;9.60;5.82;;;-0.40;95.40;;;;;;4992121;28;20500;-72
2022/03/12 03:10:58;;;;;;;12.27;5.97;;;-0.40;95.00;;;;;;4992005;28;20693;-72
2022/03/12 03:13:36;;;;;;;12.00;6.95;;;-0.40;95.00;;;;;;5005652;28;20046;-72
2022/03/12 03:16:21;;;;;;;9.40;5.95;;;-0.50;96.20;;;;;;4988456;28;20042;-72
2022/03/12 03:18:54;;;;;;;10.93;7.32;;;-0.50;96.20;;;;;;4988777;28;20473;-73
2022/03/12 03:21:26;;;;;;;8.68;5.93;;;-0.50;95.80;;;;;;4988930;28;20039;-72
2022/03/12 03:24:00;;;;;;;10.73;6.35;;;-0.50;96.00;;;;;;5003533;28;20048;-71
2022/03/12 03:26:37;;;;;;;11.02;6.63;;;-0.50;96.10;;;;;;4989299;28;20575;-72
2022/03/12 03:29:10;;;;;;;11.40;6.65;;;-0.50;96.00;;;;;;4988951;28;20049;-72
2022/03/12 03:31:42;;;;;;;11.63;6.50;;;-0.50;96.10;;;;;;4988735;28;20050;-72
2022/03/12 03:34:14;;;;;;;11.88;6.32;;;-0.50;96.10;;;;;;4989681;28;20134;-73
2022/03/12 03:36:47;;;;;;;10.07;6.65;;;-0.50;95.70;;;;;;5006529;28;20038;-72
2022/03/12 03:39:18;;;;;;;11.00;6.82;;;-0.50;95.60;;;;;;4990326;28;20042;-72
2022/03/12 03:41:50;;;;;;;11.38;7.00;;;-0.50;95.90;;;;;;4990119;28;20137;-72
2022/03/12 03:44:28;;;;;;;20.48;9.00;;;-0.50;97.00;;;;;;4987709;28;20062;-72
2022/03/12 03:47:00;;;;;;;9.77;6.25;;;-0.50;97.10;;;;;;5007273;28;20117;-73
2022/03/12 03:49:32;;;;;;;13.15;7.45;;;-0.50;97.00;;;;;;4991756;28;20536;-72
2022/03/12 03:52:07;;;;;;;14.80;7.63;;;-0.50;96.80;;;;;;5006611;28;20058;-72
2022/03/12 03:54:40;;;;;;;12.07;6.93;;;-0.60;97.10;;;;;;4993244;28;20038;-71
2022/03/12 03:57:14;;;;;;;12.88;7.72;;;-0.60;97.40;;;;;;5009637;28;20042;-72
2022/03/12 03:59:47;;;;;;;13.80;8.07;;;-0.70;97.70;;;;;;5009483;28;20038;-72
2022/03/12 04:02:19;;;;;;;10.60;6.35;;;-0.70;97.70;;;;;;4993996;28;20404;-72
2022/03/12 04:04:53;;;;;;;10.73;7.05;;;-0.70;97.60;;;;;;5009753;28;20042;-72
2022/03/12 04:07:25;;;;;;;18.25;6.88;;;-0.70;98.20;;;;;;5025726;28;20121;-72
2022/03/12 04:09:57;;;;;;;11.27;6.68;;;-0.70;98.10;;;;;;4996255;28;20039;-72
2022/03/12 04:12:32;;;;;;;11.30;7.10;;;-0.70;97.60;;;;;;4973528;28;20042;-72
2022/03/12 04:15:04;;;;;;;13.13;7.07;;;-0.70;97.40;;;;;;4987996;28;20045;-72
2022/03/12 04:17:36;;;;;;;11.10;6.85;;;-0.70;97.30;;;;;;4976474;28;20040;-72
2022/03/12 04:20:09;;;;;;;12.05;6.68;;;-0.80;98.20;;;;;;4990153;28;20133;-71
2022/03/12 04:22:40;;;;;;;9.88;7.07;;;-0.80;98.90;;;;;;4972114;28;20053;-72
2022/03/12 04:25:12;;;;;;;10.68;6.47;;;-0.80;99.10;;;;;;4987335;28;20092;-72
2022/03/12 04:27:42;;;;;;;12.63;7.82;;;-0.80;99.10;;;;;;4987575;28;20497;-73
2022/03/12 04:30:11;;;;;;;14.40;7.47;;;-0.80;99.20;;;;;;4987298;28;20057;-72
2022/03/12 04:32:43;;;;;;;13.30;7.50;;;-0.80;99.20;;;;;;4987122;28;20050;-72
2022/03/12 04:35:17;;;;;;;13.02;8.10;;;-0.80;99.10;;;;;;4988543;28;20401;-72
2022/03/12 04:37:49;;;;;;;;;;;-0.80;99.20;;;;;;4989828;28;20129;-71
2022/03/12 04:40:26;;;;;;;12.13;7.20;;;-0.80;99.90;;;;;;4990378;28;20250;-72
2022/03/12 04:42:57;;;;;;;13.02;7.75;;;-0.90;99.90;;;;;;4991101;28;20046;-72
2022/03/12 04:45:29;;;;;;;14.18;7.65;;;-0.90;99.90;;;;;;5021824;28;20046;-72
2022/03/12 04:48:02;;;;;;;14.93;7.82;;;-0.90;99.90;;;;;;4991474;28;20125;-72
2022/03/12 04:50:33;;;;;;;12.13;7.35;;;-0.90;99.90;;;;;;5021578;28;20129;-72
2022/03/12 04:53:01;;;;;;;12.27;7.43;;;-0.90;99.90;;;;;;5022312;28;20420;-72
2022/03/12 04:55:36;;;;;;;14.93;7.88;;;-0.90;99.90;;;;;;4991435;28;20049;-72
2022/03/12 04:58:09;;;;;;;13.30;7.43;;;-1.00;99.90;;;;;;4990290;28;20046;-72
2022/03/12 05:00:43;;;;;;;15.43;8.73;;;-0.90;99.90;;;;;;4990270;28;20042;-72
2022/03/12 05:03:20;;;;;;;11.25;7.72;;;-0.90;99.90;;;;;;4990816;28;20515;-72
2022/03/12 05:05:53;;;;;;;14.48;7.38;;;-0.90;99.90;;;;;;5005528;28;20046;-72
2022/03/12 05:08:36;;;;;;;11.38;6.57;;;-0.90;99.90;;;;;;4990266;28;20060;-72
2022/03/12 05:11:08;;;;;;;12.02;7.70;;;-0.90;99.90;;;;;;4993684;28;20412;-71
2022/03/12 05:13:40;;;;;;;15.88;7.13;;;-0.90;99.90;;;;;;4993019;28;20453;-72
2022/03/12 05:16:15;;;;;;;11.63;7.63;;;-1.00;99.90;;;;;;5024871;28;20129;-72
2022/03/12 05:18:47;;;;;;;13.52;7.97;;;-1.00;99.90;;;;;;4993957;28;20046;-72
2022/03/12 05:21:21;;;;;;;14.57;8.13;;;-1.00;99.90;;;;;;5008664;28;20137;-72
2022/03/12 05:23:48;;;;;;;11.88;7.68;;;-1.00;99.90;;;;;;4994054;28;20066;-72
2022/03/12 05:26:21;;;;;;;20.52;8.05;;;-1.00;99.90;;;;;;4994536;28;20050;-72
2022/03/12 05:28:52;;;;;;;12.65;7.97;;;-1.00;99.90;;;;;;4993365;28;20519;-72
2022/03/12 05:31:24;;;;;;;12.85;8.20;;;-1.00;99.90;;;;;;4994516;28;20065;-72
2022/03/12 05:33:57;;;;;;;13.00;7.18;;;-1.00;99.90;;;;;;4993980;28;20042;-73
2022/03/12 05:36:24;;;;;;;12.82;8.00;;;-1.00;99.90;;;;;;5025763;28;20038;-72
2022/03/12 05:38:56;;;;;;;12.55;7.50;;;-1.00;99.90;;;;;;4992917;28;20057;-72
2022/03/12 05:41:29;;;;;;;11.13;8.15;;;-1.00;99.90;;;;;;5008676;28;20038;-71
2022/03/12 05:44:02;;;;;;;12.75;7.68;;;-1.00;99.90;;;;;;4993977;28;20133;-71
2022/03/12 05:46:29;;;;;;;11.15;7.45;;;-1.00;99.90;;;;;;4992984;28;20482;-73
2022/03/12 05:49:01;;;;;;;13.10;8.20;;;-1.00;99.90;;;;;;4993157;28;20053;-72
2022/03/12 05:51:33;;;;;;;13.65;7.85;;;-1.00;99.90;;;;;;4992868;28;20049;-72
2022/03/12 05:54:04;;;;;;;11.52;7.57;;;-1.00;99.90;;;;;;4991417;28;20048;-72
2022/03/12 05:56:31;;;;;;;12.07;7.95;;;-0.90;99.90;;;;;;4992363;28;20137;-72
2022/03/12 05:59:03;;;;;;;11.63;7.40;;;-0.90;99.90;;;;;;4992220;28;20046;-72
2022/03/12 06:01:35;;;;;;;12.23;8.18;;;-0.90;99.90;;;;;;4992313;28;20038;-72
2022/03/12 06:04:08;;;;;;;10.57;7.68;;;-0.90;99.90;;;;;;4992890;28;20489;-72
2022/03/12 06:06:47;;;;;;;12.85;8.45;;;-0.90;99.90;;;;;;4992061;28;20048;-72
2022/03/12 06:09:18;;;;;;;11.57;7.57;;;-0.90;99.90;;;;;;4991959;28;20042;-73
2022/03/12 06:11:52;;;;;;;13.00;7.80;;;-0.90;99.90;;;;;;4991938;28;20050;-72
2022/03/12 06:14:24;;;;;;;13.30;7.70;;;-0.90;99.90;;;;;;4987992;28;20584;-72
2022/03/12 06:16:56;;;;;;;13.48;8.00;;;-0.80;99.90;;;;;;5006185;28;20046;-72
2022/03/12 06:19:30;;;;;;;11.23;7.80;;;-0.80;99.90;;;;;;4985778;28;20046;-72
2022/03/12 06:22:02;;;;;;;12.63;7.28;;;-0.80;99.90;;;;;;4975832;28;20592;-72
2022/03/12 06:24:34;;;;;;;14.13;8.30;;;-0.80;99.90;;;;;;4998107;28;20404;-72
2022/03/12 06:27:06;;;;;;;16.38;8.88;;;-0.70;99.90;;;;;;4984902;28;20125;-71
2022/03/12 06:29:38;;;;;;;12.20;7.85;;;-0.70;99.90;;;;;;4988490;28;20038;-72
2022/03/12 06:32:11;;;;;;;18.33;11.40;;;-0.60;99.90;;;;;;4996840;28;20048;-71
2022/03/12 06:34:43;;;;;;;18.55;11.02;;;-0.50;99.90;;;;;;4991293;28;20053;-73
2022/03/12 06:37:15;;;;;;;23.45;14.88;;;-0.40;99.90;;;;;;4991779;28;20601;-72
2022/03/12 06:39:41;;;;;;;20.90;13.85;;;-0.40;99.90;;;;;;4991947;28;20073;-72
2022/03/12 06:42:13;;;;;;;16.17;10.30;;;-0.40;99.90;;;;;;4990095;28;20048;-72
2022/03/12 06:44:45;;;;;;;13.73;8.63;;;-0.40;99.90;;;;;;4987429;28;20044;-72
2022/03/12 06:47:17;;;;;;;11.70;8.23;;;-0.30;99.90;;;;;;4986795;28;20042;-72
2022/03/12 06:49:49;;;;;;;14.75;7.80;;;-0.20;99.90;;;;;;4984809;28;20121;-71
2022/03/12 06:52:21;;;;;;;20.33;8.48;;;-0.10;99.90;;;;;;4999646;28;20044;-72
2022/03/12 06:54:53;;;;;;;18.48;9.05;;;-0.20;99.90;;;;;;5004854;28;20121;-72
2022/03/12 06:57:25;;;;;;;14.05;8.45;;;-0.20;99.90;;;;;;4991498;28;20042;-72
2022/03/12 06:59:57;;;;;;;15.95;8.20;;;-0.30;99.90;;;;;;4998744;28;20052;-72
2022/03/12 07:02:28;;;;;;;13.82;9.00;;;-0.30;99.90;;;;;;4990203;28;20117;-73
2022/03/12 07:05:00;;;;;;;14.63;8.35;;;-0.40;99.90;;;;;;4983842;28;20041;-72
2022/03/12 07:07:32;;;;;;;12.65;7.68;;;-0.40;99.90;;;;;;5002471;28;20485;-72
2022/03/12 07:10:06;;;;;;;13.20;8.75;;;-0.40;99.90;;;;;;4990348;28;20043;-72
2022/03/12 07:12:40;;;;;;;14.75;8.23;;;-0.40;99.90;;;;;;5021219;28;20057;-72
2022/03/12 07:15:13;;;;;;;16.65;7.78;;;-0.40;99.90;;;;;;4985452;28;20062;-72
2022/03/12 07:17:45;;;;;;;13.75;7.68;;;-0.40;99.90;;;;;;4991656;28;20535;-71
2022/03/12 07:20:17;;;;;;;14.55;7.57;;;-0.40;99.90;;;;;;4990874;28;20121;-72
2022/03/12 07:22:49;;;;;;;13.60;8.13;;;-0.50;99.90;;;;;;4990649;28;20061;-72
2022/03/12 07:25:22;;;;;;;32.83;8.98;;;-0.50;99.90;;;;;;4987357;28;20113;-72
2022/03/12 07:27:55;;;;;;;14.90;7.85;;;-0.50;99.90;;;;;;4994181;28;20074;-72
2022/03/12 07:30:27;;;;;;;15.60;8.43;;;-0.50;99.90;;;;;;5010212;28;20041;-72
2022/03/12 07:32:59;;;;;;;19.73;9.18;;;-0.60;99.90;;;;;;4996117;28;20077;-72
2022/03/12 07:35:30;;;;;;;13.95;8.45;;;-0.50;99.90;;;;;;4975315;28;20034;-72
2022/03/12 07:38:04;;;;;;;17.63;8.57;;;-0.50;99.90;;;;;;4982868;28;20436;-72
2022/03/12 07:40:36;;;;;;;17.50;10.82;;;-0.50;99.90;;;;;;4980441;28;20073;-72
2022/03/12 07:43:03;;;;;;;16.05;10.00;;;-0.40;99.90;;;;;;4977545;28;20109;-72
2022/03/12 07:45:35;;;;;;;17.60;8.65;;;-0.40;99.90;;;;;;4986643;28;20042;-72
2022/03/12 07:48:12;;;;;;;14.45;8.27;;;-0.30;99.90;;;;;;4991488;28;20050;-72
2022/03/12 07:50:44;;;;;;;16.77;8.82;;;0.20;99.90;;;;;;4987917;28;20061;-72
2022/03/12 07:53:16;;;;;;;21.15;9.23;;;0.70;99.90;;;;;;4983824;28;20567;-72
2022/03/12 07:55:49;;;;;;;19.10;9.93;;;1.10;99.90;;;;;;4981578;28;20528;-71
2022/03/12 07:58:21;;;;;;;19.75;11.70;;;1.40;98.90;;;;;;4989826;28;20310;-72
2022/03/12 08:00:56;;;;;;;18.98;11.80;;;1.50;98.60;;;;;;4988461;28;20076;-72
2022/03/12 08:03:28;;;;;;;16.67;10.95;;;1.30;98.50;;;;;;4989018;28;20046;-72
2022/03/12 08:06:00;;;;;;;15.65;10.00;;;1.10;98.90;;;;;;4991244;28;20630;-72
2022/03/12 08:08:33;;;;;;;25.30;9.75;;;1.00;99.00;;;;;;4990090;28;20097;-72
2022/03/12 08:14:02;;;;;;;13.90;8.68;;;0.90;98.60;;;;;;4989357;28;20061;-72
2022/03/12 08:16:36;;;;;;;15.60;8.57;;;0.90;98.50;;;;;;4989914;28;20043;-72
2022/03/12 08:19:09;;;;;;;19.30;8.57;;;1.00;98.60;;;;;;4990175;28;20137;-72
2022/03/12 08:21:42;;;;;;;14.68;7.47;;;1.00;98.20;;;;;;4990555;28;20082;-72
2022/03/12 08:24:15;;;;;;;17.02;8.60;;;1.10;97.90;;;;;;4990990;28;20096;-71
2022/03/12 08:26:48;;;;;;;13.07;8.55;;;1.20;98.20;;;;;;4990247;28;20137;-72
2022/03/12 08:29:21;;;;;;;10.50;6.50;;;1.20;97.70;;;;;;4991418;28;20074;-72
2022/03/12 08:31:52;;;;;;;12.82;8.13;;;1.40;98.80;;;;;;4975296;28;20054;-72
2022/03/12 08:34:25;;;;;;;14.18;8.05;;;1.50;97.80;;;;;;4989746;28;20061;-71
2022/03/12 08:36:57;;;;;;;13.68;9.30;;;1.60;96.60;;;;;;4991662;28;20117;-72
2022/03/12 08:39:29;;;;;;;14.07;8.25;;;1.80;97.00;;;;;;4990257;28;20081;-72
2022/03/12 08:41:56;;;;;;;13.85;8.23;;;1.90;96.60;;;;;;4990398;28;20082;-72
2022/03/12 08:44:28;;;;;;;17.13;7.75;;;2.10;95.30;;;;;;4989825;28;20138;-72
2022/03/12 08:47:00;;;;;;;11.95;7.75;;;2.20;95.20;;;;;;4999970;28;20097;-72
2022/03/12 08:49:32;;;;;;;10.68;7.07;;;2.40;94.90;;;;;;5013181;28;20045;-72
2022/03/12 08:52:06;;;;;;;;;;;2.60;93.70;;;;;;4996116;28;20742;-72
2022/03/12 08:54:37;;;;;;;11.90;7.60;;;2.70;93.20;;;;;;5012605;28;19927;-72
2022/03/12 08:57:10;;;;;;;12.68;8.38;;;2.70;93.00;;;;;;5012853;28;20058;-72
2022/03/12 08:59:42;;;;;;;12.52;8.10;;;2.80;92.60;;;;;;5012878;28;20084;-72
2022/03/12 09:02:14;;;;;;;14.93;8.82;;;2.80;92.60;;;;;;5013276;28;20076;-72
2022/03/12 09:04:46;;;;;;;12.05;8.07;;;2.90;92.10;;;;;;5013040;28;20125;-72
2022/03/12 09:07:20;;;;;;;17.58;9.55;;;3.00;92.20;;;;;;5014272;28;20092;-72
2022/03/12 09:09:52;;;;;;;15.32;10.00;;;3.10;92.00;;;;;;5013623;28;20164;-72
2022/03/12 09:12:25;;;;;;;13.13;7.47;;;3.10;91.60;;;;;;5014115;28;20049;-72
2022/03/12 09:14:58;;;;;;;13.55;9.07;;;3.20;91.20;;;;;;5013328;28;20038;-72
2022/03/12 09:17:30;;;;;;;15.60;10.15;;;3.30;91.20;;;;;;5012919;28;20116;-72
2022/03/12 09:20:04;;;;;;;;;;;3.50;91.30;;;;;;5013378;28;20120;-73
2022/03/12 09:22:36;;;;;;;15.90;9.18;;;3.60;90.90;;;;;;4997033;28;19969;-72
2022/03/12 09:25:09;;;;;;;13.98;9.02;;;3.70;90.90;;;;;;5012969;28;20054;-72
2022/03/12 09:27:44;;;;;;;;;;;3.80;90.30;;;;;;5013294;28;20527;-72
2022/03/12 09:30:12;;;;;;;13.80;8.98;;;4.00;90.50;;;;;;5014133;28;19957;-72
2022/03/12 09:32:44;;;;;;;17.05;9.73;;;4.10;89.70;;;;;;5012576;28;20044;-72
2022/03/12 09:35:16;;;;;;;30.52;9.60;;;4.20;88.90;;;;;;5014195;28;20504;-71
2022/03/12 09:37:48;;;;;;;17.15;9.73;;;4.20;89.80;;;;;;5014177;28;20042;-72
2022/03/12 09:40:20;;;;;;;13.93;8.65;;;4.30;89.50;;;;;;5013673;28;20132;-72
2022/03/12 09:42:52;;;;;;;13.85;9.65;;;4.40;88.00;;;;;;5012503;28;20133;-72
2022/03/12 09:45:24;;;;;;;12.38;8.70;;;4.40;87.40;;;;;;4980097;28;20088;-72
2022/03/12 09:47:56;;;;;;;16.40;9.48;;;4.50;87.60;;;;;;4990437;28;20038;-72
2022/03/12 09:50:23;;;;;;;11.27;8.02;;;4.60;86.60;;;;;;4991816;28;20593;-72
2022/03/12 09:52:56;;;;;;;;;;;4.60;87.00;;;;;;4993021;28;20069;-72
2022/03/12 09:55:28;;;;;;;14.05;8.70;;;4.70;86.70;;;;;;4991270;28;19922;-73
2022/03/12 09:58:00;;;;;;;17.08;9.90;;;4.80;86.60;;;;;;4986676;28;20409;-72
2022/03/12 10:00:32;;;;;;;18.27;9.48;;;4.80;87.60;;;;;;4992005;28;20112;-72
2022/03/12 10:03:05;;;;;;;15.43;8.98;;;5.00;86.60;;;;;;4993258;28;20608;-72
2022/03/12 10:05:33;;;;;;;16.52;9.65;;;5.10;86.00;;;;;;4992068;28;20757;-72
2022/03/12 10:08:04;;;;;;;18.85;9.63;;;5.20;86.50;;;;;;5010466;28;20046;-73
2022/03/12 10:10:33;;;;;;;15.18;9.45;;;5.30;84.60;;;;;;4995534;28;20096;-72
2022/03/12 10:13:05;;;;;;;14.20;9.15;;;5.40;84.00;;;;;;4990088;28;20046;-71
2022/03/12 10:15:37;;;;;;;14.82;10.18;;;5.50;84.10;;;;;;4991193;28;20035;-72
2022/03/12 10:18:09;;;;;;;17.20;9.10;;;5.60;83.30;;;;;;4993661;28;20673;-73
2022/03/12 10:20:44;;;;;;;11.73;8.80;;;5.70;86.00;;;;;;4991454;28;20500;-72
2022/03/12 10:23:16;;;;;;;14.75;9.82;;;6.10;90.00;;;;;;4990908;28;20035;-72
2022/03/12 10:25:48;;;;;;;21.80;9.38;;;6.30;85.50;;;;;;4995641;28;20137;-72
2022/03/12 10:28:20;;;;;;;16.27;10.63;;;6.40;82.70;;;;;;4995280;28;20046;-72
2022/03/12 10:30:53;;;;;;;15.68;9.48;;;6.50;81.50;;;;;;4997488;28;20062;-72
2022/03/12 10:33:23;;;;;;;16.42;10.13;;;6.60;80.80;;;;;;5008032;28;20138;-71
2022/03/12 10:36:11;;;;;;;16.05;9.93;;;6.60;80.70;;;;;;4992653;28;20467;-72
2022/03/12 10:38:45;;;;;;;15.00;10.05;;;6.60;80.40;;;;;;4992471;28;20539;-71
2022/03/12 10:41:17;;;;;;;18.77;11.27;;;6.70;81.50;;;;;;4978851;28;20038;-72
2022/03/12 10:43:55;;;;;;;15.80;9.82;;;6.80;80.30;;;;;;4983226;28;20046;-72
2022/03/12 10:46:29;;;;;;;15.77;10.73;;;6.90;79.00;;;;;;4994787;28;20152;-72
2022/03/12 10:49:03;;;;;;;15.93;11.00;;;7.00;79.30;;;;;;4983064;28;20121;-72
2022/03/12 10:51:38;;;;;;;17.13;9.88;;;7.10;77.80;;;;;;4991956;28;20052;-72
2022/03/12 10:54:15;;;;;;;16.63;10.73;;;7.10;77.80;;;;;;4998689;28;20073;-72
2022/03/12 10:56:54;;;;;;;22.02;13.00;;;7.20;77.30;;;;;;4997387;28;20034;-72
2022/03/12 10:59:27;;;;;;;24.27;12.35;;;7.30;77.40;;;;;;4991178;28;20034;-72
2022/03/12 11:01:56;;;;;;;15.50;10.02;;;7.40;79.20;;;;;;4990630;28;20038;-71
2022/03/12 11:04:30;;;;;;;18.40;11.27;;;7.60;78.00;;;;;;4992759;28;20456;-72
2022/03/12 11:07:18;;;;;;;16.63;9.75;;;7.70;77.50;;;;;;4992063;28;20034;-72
2022/03/12 11:09:54;;;;;;;16.15;10.13;;;7.80;76.30;;;;;;4991375;28;20639;-72
2022/03/12 11:12:35;;;;;;;16.08;11.18;;;8.00;76.20;;;;;;4990833;28;20432;-72
2022/03/12 11:15:15;;;;;;;18.80;11.85;;;8.30;76.60;;;;;;4975928;28;20137;-72
2022/03/12 11:17:49;;;;;;;15.52;10.80;;;8.40;75.60;;;;;;4992042;28;20074;-71
2022/03/12 11:20:27;;;;;;;;;;;8.60;76.00;;;;;;5002476;28;20039;-72
2022/03/12 11:23:27;;;;;;;16.95;10.75;;;8.70;74.70;;;;;;4993430;28;19921;-72
2022/03/12 11:26:06;;;;;;;16.25;10.77;;;8.80;73.80;;;;;;4989917;28;20429;-72
2022/03/12 11:28:36;;;;;;;17.20;10.82;;;8.80;72.80;;;;;;4996178;28;20045;-72
2022/03/12 11:31:10;;;;;;;15.50;11.15;;;8.90;72.60;;;;;;4996225;28;20046;-72
2022/03/12 11:33:43;;;;;;;18.52;11.85;;;9.00;71.20;;;;;;4990294;28;20506;-72
2022/03/12 11:36:20;;;;;;;20.38;14.45;;;9.10;71.20;;;;;;4986630;28;20074;-72
2022/03/12 11:38:54;;;;;;;18.92;12.43;;;9.30;73.10;;;;;;4990623;28;20121;-72
2022/03/12 11:41:26;;;;;;;21.48;11.38;;;9.40;70.60;;;;;;4967377;28;20137;-72
2022/03/12 11:44:01;;;;;;;19.92;11.52;;;9.50;71.10;;;;;;4990279;28;20038;-72
2022/03/12 11:46:34;;;;;;;16.70;10.70;;;9.70;70.50;;;;;;4987628;28;20073;-71
2022/03/12 11:49:03;;;;;;;16.70;12.35;;;9.80;70.00;;;;;;4991957;28;20401;-72
2022/03/12 11:51:35;;;;;;;16.47;11.40;;;9.90;68.50;;;;;;4990825;28;20073;-72
2022/03/12 11:54:07;;;;;;;15.82;11.07;;;10.00;68.40;;;;;;4990451;28;20042;-72
2022/03/12 11:56:39;;;;;;;14.82;10.80;;;10.10;67.60;;;;;;4992617;28;20141;-72
2022/03/12 11:59:12;;;;;;;16.77;11.35;;;10.20;67.10;;;;;;4990828;28;20088;-72
2022/03/12 12:02:01;;;;;;;18.35;10.98;;;10.30;67.20;;;;;;4994345;28;20552;-72
2022/03/12 12:04:34;;;;;;;16.88;11.57;;;10.40;67.30;;;;;;4986559;28;20066;-72
2022/03/12 12:07:06;;;;;;;16.23;11.25;;;10.50;66.10;;;;;;4988550;28;20136;-72
2022/03/12 12:09:38;;;;;;;17.70;11.52;;;10.60;65.40;;;;;;4988654;28;20576;-72
2022/03/12 12:12:13;;;;;;;19.90;12.07;;;10.70;65.70;;;;;;4978722;28;20137;-72
2022/03/12 12:14:45;;;;;;;16.00;11.60;;;10.80;65.00;;;;;;4973328;28;20046;-72
2022/03/12 12:17:17;;;;;;;22.08;12.00;;;10.90;64.00;;;;;;4989446;28;20038;-72
2022/03/12 12:19:49;;;;;;;23.17;12.18;;;11.00;63.90;;;;;;4991107;28;20435;-72
2022/03/12 12:22:21;;;;;;;15.90;11.18;;;11.10;63.80;;;;;;5021423;28;20050;-72
2022/03/12 12:24:55;;;;;;;24.60;12.60;;;11.20;63.30;;;;;;4998202;28;20499;-72
2022/03/12 12:27:43;;;;;;;17.38;12.20;;;11.30;61.60;;;;;;4976564;28;20535;-72
2022/03/12 12:30:29;;;;;;;20.50;12.55;;;11.30;62.60;;;;;;5009123;28;20060;-72
2022/03/12 12:33:02;;;;;;;16.08;11.90;;;11.40;61.10;;;;;;4988652;28;20053;-72
2022/03/12 12:35:34;;;;;;;18.00;12.40;;;11.40;61.00;;;;;;4991616;28;20058;-72
2022/03/12 12:38:09;;;;;;;18.42;11.95;;;11.40;60.40;;;;;;4991113;28;20089;-72
2022/03/12 12:40:47;;;;;;;22.92;14.23;;;11.50;60.40;;;;;;4995543;28;20556;-72
2022/03/12 12:43:23;;;;;;;19.38;12.85;;;11.60;59.70;;;;;;4992132;28;20039;-72
2022/03/12 12:45:56;;;;;;;18.40;13.55;;;11.60;59.80;;;;;;4982387;28;20058;-72
2022/03/12 12:48:40;;;;;;;21.58;15.02;;;11.60;58.60;;;;;;4991429;28;20046;-72
2022/03/12 12:51:17;;;;;;;18.48;13.13;;;11.70;58.70;;;;;;4993301;28;20058;-72
2022/03/12 12:53:55;;;;;;;22.55;14.07;;;11.70;58.40;;;;;;4991607;28;20458;-72
2022/03/12 12:56:38;;;;;;;18.73;12.30;;;11.80;58.50;;;;;;5010092;28;20065;-72
2022/03/12 12:59:12;;;;;;;17.83;12.88;;;11.80;58.00;;;;;;4993738;28;20489;-71
2022/03/12 13:01:48;;;;;;;19.52;13.10;;;11.90;57.60;;;;;;5001151;28;20095;-72
2022/03/12 13:04:16;;;;;;;22.05;14.18;;;12.00;57.00;;;;;;5000335;28;20507;-72
2022/03/12 13:06:52;;;;;;;17.65;12.95;;;12.00;56.90;;;;;;4994988;28;20047;-72
2022/03/12 13:09:35;;;;;;;20.52;13.75;;;12.00;57.70;;;;;;4993838;28;20596;-72
2022/03/12 13:12:09;;;;;;;15.95;12.55;;;12.10;57.00;;;;;;4993782;28;20417;-72
2022/03/12 13:14:50;;;;;;;16.55;12.20;;;12.10;56.60;;;;;;5002191;28;20121;-72